Time;durP1;ratioP1;P1;durP2;ratioP2;P2;SDS_P1;SDS_P2;PMS_P1;PMS_P2;Temp;Humidity;BMP_temperature;BMP_pressure;BME280_temperature;BME280_humidity;BME280_pressure;Samples;Min_cycle;Max_cycle;Signal;HPM_P1;HPM_P2
2022/03/11 00:00:55;;;;;;;;;30.50;21.75;;;;;17.75;41.07;100945.88;5101166;27;61922;-80
2022/03/11 00:03:21;;;;;;;;;24.00;21.75;;;;;17.73;41.03;100947.59;5103215;27;61819;-80
2022/03/11 00:05:47;;;;;;;;;33.50;23.50;;;;;17.74;40.78;100945.88;5103189;27;62041;-80
2022/03/11 00:08:13;;;;;;;;;18.75;18.75;;;;;17.75;40.87;100939.69;5103434;27;62130;-80
2022/03/11 00:10:39;;;;;;;;;32.50;25.00;;;;;17.77;40.62;100937.94;5118095;27;62842;-80
2022/03/11 00:13:04;;;;;;;;;25.75;21.75;;;;;17.74;40.85;100927.28;5102802;27;61696;-81
2022/03/11 00:15:30;;;;;;;;;22.00;20.75;;;;;17.75;40.67;100934.38;5118562;27;61789;-81
2022/03/11 00:17:56;;;;;;;;;26.75;24.25;;;;;17.74;40.84;100922.88;5103449;27;61994;-81
2022/03/11 00:20:21;;;;;;;;;27.25;24.25;;;;;17.72;40.80;100923.72;5101090;27;63671;-80
2022/03/11 00:22:50;;;;;;;;;30.75;21.25;;;;;17.70;40.71;100914.81;5101640;27;61815;-81
2022/03/11 00:25:16;;;;;;;;;22.25;20.25;;;;;17.63;40.85;100915.56;5118443;27;61960;-80
2022/03/11 00:27:42;;;;;;;;;24.25;20.25;;;;;17.64;41.09;100909.41;5100911;27;62295;-80
2022/03/11 00:30:09;;;;;;;;;34.50;24.00;;;;;17.63;40.94;100910.25;5100712;27;64467;-81
2022/03/11 00:32:34;;;;;;;;;25.25;21.00;;;;;17.64;41.00;100899.66;5103096;27;62205;-80
2022/03/11 00:35:00;;;;;;;;;23.50;21.00;;;;;17.64;40.94;100904.09;5102830;27;61895;-81
2022/03/11 00:37:25;;;;;;;;;24.25;20.50;;;;;17.64;40.97;100909.41;5101210;27;61920;-80
2022/03/11 00:39:51;;;;;;;;;22.25;19.75;;;;;17.61;41.13;100910.25;5100491;27;63363;-80
2022/03/11 00:42:16;;;;;;;;;23.25;19.00;;;;;17.58;41.19;100902.22;5102854;27;61912;-80
2022/03/11 00:44:42;;;;;;;;;20.00;16.00;;;;;17.58;41.06;100907.53;5103380;27;61817;-80
2022/03/11 00:47:09;;;;;;;;;24.50;21.50;;;;;17.54;41.34;100901.25;5105179;27;61876;-80
2022/03/11 00:49:35;;;;;;;;;26.25;23.00;;;;;17.53;41.26;100896.84;5121634;27;62692;-80
2022/03/11 00:52:01;;;;;;;;;30.00;23.50;;;;;17.51;41.18;100898.56;5106264;27;61826;-81
2022/03/11 00:54:26;;;;;;;;;24.25;19.50;;;;;17.48;41.45;100894.94;5105887;27;61741;-80
2022/03/11 00:56:52;;;;;;;;;24.25;19.50;;;;;17.47;41.31;100886.09;5105501;27;62204;-80
2022/03/11 00:59:17;;;;;;;;;26.50;23.25;;;;;17.46;41.51;100883.41;5120908;27;62948;-80
2022/03/11 01:01:43;;;;;;;;;21.75;19.75;;;;;17.48;41.42;100873.72;5106115;27;61735;-81
2022/03/11 01:04:09;;;;;;;;;25.50;22.00;;;;;17.51;41.29;100887.94;5106229;27;61870;-80
2022/03/11 01:06:35;;;;;;;;;24.25;21.25;;;;;17.52;41.19;100872.91;5104387;27;62074;-80
2022/03/11 01:09:02;;;;;;;;;24.00;18.75;;;;;17.53;41.21;100883.56;5103597;27;63668;-80
2022/03/11 01:11:27;;;;;;;;;23.00;18.50;;;;;17.51;41.31;100879.97;5121849;27;62003;-80
2022/03/11 01:13:52;;;;;;;;;23.50;18.25;;;;;17.52;41.29;100873.81;5104128;27;61950;-80
2022/03/11 01:16:18;;;;;;;;;26.00;21.75;;;;;17.52;41.23;100867.59;5121667;27;62416;-80
2022/03/11 01:18:43;;;;;;;;;24.50;19.00;;;;;17.54;41.29;100861.44;5103726;27;63678;-80
2022/03/11 01:21:10;;;;;;;;;21.75;21.25;;;;;17.55;41.26;100860.59;5104462;27;61965;-80
2022/03/11 01:23:35;;;;;;;;;23.00;20.50;;;;;17.59;41.22;100861.56;5105235;27;61827;-81
2022/03/11 01:26:01;;;;;;;;;18.50;18.50;;;;;17.60;41.15;100854.47;5105367;27;62063;-79
2022/03/11 01:28:26;;;;;;;;;25.50;20.75;;;;;17.57;41.12;100847.34;5104499;27;63121;-80
2022/03/11 01:30:52;;;;;;;;;16.75;16.00;;;;;17.56;41.34;100849.09;5104334;27;61797;-80
2022/03/11 01:33:17;;;;;;;;;24.75;18.00;;;;;17.51;41.16;100844.59;5105496;27;62153;-80
2022/03/11 01:35:43;;;;;;;;;21.50;18.00;;;;;17.51;41.37;100844.59;5104238;27;62562;-80
2022/03/11 01:38:08;;;;;;;;;16.75;14.50;;;;;17.45;41.36;100845.38;5104485;27;62051;-80
2022/03/11 01:40:34;;;;;;;;;14.25;14.00;;;;;17.45;41.45;100844.47;5104171;27;61948;-80
2022/03/11 01:42:59;;;;;;;;;23.00;15.75;;;;;17.41;41.42;100842.66;5104998;27;61760;-80
2022/03/11 01:45:25;;;;;;;;;19.00;14.50;;;;;17.35;41.49;100832.81;5105194;27;62047;-80
2022/03/11 01:47:50;;;;;;;;;18.00;14.25;;;;;17.32;41.65;100830.09;5103488;27;63698;-80
2022/03/11 01:50:16;;;;;;;;;27.50;19.75;;;;;17.25;41.70;100829.13;5105147;27;61838;-80
2022/03/11 01:52:41;;;;;;;;;18.75;18.00;;;;;17.23;41.60;100827.31;5120831;27;61859;-80
2022/03/11 01:55:07;;;;;;;;;19.00;14.75;;;;;17.15;41.93;100824.50;5104176;27;62139;-80
2022/03/11 01:57:36;;;;;;;;;20.25;20.25;;;;;17.17;41.76;100823.66;5103966;27;62167;-80
2022/03/11 02:00:07;;;;;;;;;18.00;15.75;;;;;17.17;41.93;100817.47;5104929;27;61923;-80
2022/03/11 02:02:32;;;;;;;;;17.00;13.50;;;;;17.17;42.21;100815.69;5103821;27;61784;-80
2022/03/11 02:04:59;;;;;;;;;17.50;15.00;;;;;17.15;42.15;100813.88;5086670;27;62105;-80
2022/03/11 02:07:24;;;;;;;;;22.75;19.25;;;;;17.16;41.82;100813.94;5085790;27;65011;-80
2022/03/11 02:09:50;;;;;;;;;21.50;19.50;;;;;17.24;41.87;100814.03;5086456;27;61729;-80
2022/03/11 02:12:36;;;;;;;;;22.00;19.00;;;;;17.25;41.75;100802.59;5103588;27;61743;-80
2022/03/11 02:15:04;;;;;;;;;23.75;18.75;;;;;17.26;41.82;100801.69;5102717;27;62273;-81
2022/03/11 02:17:30;;;;;;;;;22.50;17.75;;;;;17.26;41.80;100816.72;5104404;27;63217;-80
2022/03/11 02:19:56;;;;;;;;;21.75;17.50;;;;;17.28;41.73;100815.00;5086107;27;62009;-80
2022/03/11 02:22:24;;;;;;;;;23.00;20.00;;;;;17.30;41.94;100819.47;5086520;27;61950;-80
2022/03/11 02:24:51;;;;;;;;;21.25;16.50;;;;;17.32;41.67;100823.03;5086295;27;62076;-80
2022/03/11 02:27:16;;;;;;;;;17.75;14.00;;;;;17.28;41.87;100815.88;5103763;27;61981;-80
2022/03/11 02:29:42;;;;;;;;;23.00;19.00;;;;;17.28;41.88;100812.34;5085866;27;62084;-80
2022/03/11 02:32:08;;;;;;;;;21.25;17.50;;;;;17.27;41.97;100807.94;5104777;27;61753;-79
2022/03/11 02:34:34;;;;;;;;;24.75;17.50;;;;;17.29;41.89;100800.88;5086144;27;61898;-80
2022/03/11 02:37:00;;;;;;;;;24.50;21.50;;;;;17.31;41.75;100792.09;5103747;27;61806;-80
2022/03/11 02:39:25;;;;;;;;;23.75;16.00;;;;;17.32;41.84;100791.19;5086181;27;62175;-80
2022/03/11 02:41:51;;;;;;;;;26.25;20.00;;;;;17.30;41.82;100790.28;5104565;27;61831;-80
2022/03/11 02:44:17;;;;;;;;;26.75;19.75;;;;;17.29;41.76;100793.81;5085757;27;62279;-80
2022/03/11 02:46:43;;;;;;;;;19.50;18.50;;;;;17.27;41.83;100786.69;5103737;27;62033;-80
2022/03/11 02:49:08;;;;;;;;;23.75;18.00;;;;;17.25;41.96;100789.31;5085365;27;61863;-80
2022/03/11 02:51:33;;;;;;;;;19.25;16.50;;;;;17.25;41.95;100791.09;5104369;27;61945;-80
2022/03/11 02:53:59;;;;;;;;;26.00;18.75;;;;;17.24;42.06;100781.31;5086270;27;61805;-80
2022/03/11 02:56:25;;;;;;;;;20.00;14.50;;;;;17.22;42.04;100772.44;5103111;27;62194;-80
2022/03/11 02:58:50;;;;;;;;;26.50;20.25;;;;;17.18;42.31;100779.44;5103639;27;62387;-80
2022/03/11 03:01:16;;;;;;;;;22.75;20.50;;;;;17.11;42.19;100778.44;5104414;27;61833;-80
2022/03/11 03:03:42;;;;;;;;;20.75;17.50;;;;;17.07;42.24;100779.25;5103781;27;61670;-80
2022/03/11 03:06:07;;;;;;;;;25.75;17.25;;;;;17.00;42.52;100768.53;5103205;27;62017;-81
2022/03/11 03:08:34;;;;;;;;;18.25;13.75;;;;;16.98;42.66;100778.22;5103989;27;61915;-80
2022/03/11 03:11:00;;;;;;;;;19.50;15.75;;;;;16.88;42.84;100763.88;5102822;27;62044;-80
2022/03/11 03:13:26;;;;;;;;;21.50;17.75;;;;;16.82;42.92;100759.38;5085526;27;62100;-80
2022/03/11 03:15:51;;;;;;;;;17.50;12.25;;;;;16.80;42.88;100757.53;5103116;27;61862;-80
2022/03/11 03:18:17;;;;;;;;;22.25;21.25;;;;;16.75;43.11;100754.78;5103362;27;61851;-80
2022/03/11 03:20:42;;;;;;;;;21.75;16.00;;;;;16.74;43.10;100755.66;5085716;27;62127;-80
2022/03/11 03:23:08;;;;;;;;;20.75;17.75;;;;;16.69;43.07;100738.78;5103918;27;62096;-80
2022/03/11 03:25:34;;;;;;;;;19.25;16.00;;;;;16.67;43.14;100729.91;5102944;27;63178;-80
2022/03/11 03:27:59;;;;;;;;;18.75;16.50;;;;;16.61;43.66;100725.38;5103150;27;61972;-80
2022/03/11 03:30:25;;;;;;;;;23.00;18.50;;;;;16.58;43.89;100733.25;5085495;27;62304;-80
2022/03/11 03:32:50;;;;;;;;;15.50;14.50;;;;;16.53;43.84;100732.28;5103877;27;61746;-80
2022/03/11 03:35:16;;;;;;;;;22.50;17.75;;;;;16.49;43.75;100736.63;5084366;27;64046;-81
2022/03/11 03:37:42;;;;;;;;;21.50;18.00;;;;;16.45;43.97;100733.88;5103595;27;61627;-80
2022/03/11 03:40:08;;;;;;;;;16.25;16.00;;;;;16.42;44.15;100732.09;5103655;27;61785;-80
2022/03/11 03:42:34;;;;;;;;;23.75;19.00;;;;;16.41;44.10;100732.03;5104035;27;62134;-80
2022/03/11 03:45:00;;;;;;;;;23.00;17.50;;;;;16.38;44.29;100729.34;5102374;27;62031;-80
2022/03/11 03:47:25;;;;;;;;;21.75;15.00;;;;;16.33;44.57;100739.84;5103161;27;61895;-80
2022/03/11 03:49:51;;;;;;;;;17.00;12.50;;;;;16.30;44.19;100729.19;5103572;27;61972;-80
2022/03/11 03:52:17;;;;;;;;;19.50;16.25;;;;;16.24;44.55;100724.66;5102401;27;61821;-80
2022/03/11 03:54:44;;;;;;;;;19.75;18.75;;;;;16.23;44.75;100722.88;5084726;27;62003;-80
2022/03/11 03:57:10;;;;;;;;;24.25;17.50;;;;;16.27;44.49;100721.19;5084659;27;61932;-80
2022/03/11 03:59:37;;;;;;;;;21.25;18.75;;;;;16.21;44.75;100718.41;5102611;27;61751;-80
2022/03/11 04:02:03;;;;;;;;;23.25;20.25;;;;;16.16;45.14;100720.97;5084899;27;61727;-80
2022/03/11 04:04:28;;;;;;;;;20.00;16.00;;;;;16.13;45.30;100710.28;5102798;27;63143;-81
2022/03/11 04:06:54;;;;;;;;;17.25;17.25;;;;;16.11;45.32;100714.66;5084559;27;61872;-80
2022/03/11 04:09:20;;;;;;;;;18.25;17.25;;;;;16.09;45.26;100719.94;5085109;27;61767;-80
2022/03/11 04:11:45;;;;;;;;;20.25;14.50;;;;;16.09;45.14;100714.66;5103460;27;61898;-80
2022/03/11 04:14:11;;;;;;;;;20.75;17.00;;;;;16.08;45.25;100706.66;5083681;27;63896;-80
2022/03/11 04:16:36;;;;;;;;;19.25;18.75;;;;;16.03;45.52;100703.94;5102688;27;61930;-80
2022/03/11 04:19:02;;;;;;;;;27.25;18.50;;;;;16.04;45.44;100702.16;5086208;27;61988;-80
2022/03/11 04:21:28;;;;;;;;;21.00;18.00;;;;;16.00;45.63;100700.31;5088598;27;61851;-80
2022/03/11 04:23:54;;;;;;;;;17.00;15.00;;;;;16.01;45.86;100702.13;5087925;27;63661;-80
2022/03/11 04:26:19;;;;;;;;;21.75;17.75;;;;;15.97;45.79;100711.75;5087352;27;62224;-80
2022/03/11 04:28:45;;;;;;;;;20.75;15.75;;;;;15.93;46.15;100710.78;5106726;27;62143;-80
2022/03/11 04:31:12;;;;;;;;;15.25;15.25;;;;;15.93;45.83;100709.88;5087818;27;61777;-80
2022/03/11 04:33:39;;;;;;;;;13.00;12.00;;;;;15.91;46.05;100703.66;5104434;27;64529;-80
2022/03/11 04:36:05;;;;;;;;;22.75;19.25;;;;;15.91;46.12;100707.19;5088082;27;61798;-81
2022/03/11 04:38:31;;;;;;;;;19.25;14.75;;;;;15.90;46.31;100704.53;5105307;27;61833;-79
2022/03/11 04:40:57;;;;;;;;;14.75;13.50;;;;;15.89;46.29;100700.97;5088320;27;61784;-80
2022/03/11 04:43:22;;;;;;;;;19.00;17.50;;;;;15.89;46.43;100700.09;5105357;27;62936;-80
2022/03/11 04:45:48;;;;;;;;;18.00;14.50;;;;;15.90;46.11;100701.91;5105725;27;61991;-80
2022/03/11 04:48:15;;;;;;;;;15.75;13.25;;;;;15.87;46.46;100704.47;5106587;27;61756;-80
2022/03/11 04:50:40;;;;;;;;;15.50;13.25;;;;;15.85;46.76;100706.19;5088156;27;62010;-80
2022/03/11 04:53:06;;;;;;;;;14.25;12.50;;;;;15.78;46.86;100702.50;5087489;27;63465;-80
2022/03/11 04:55:32;;;;;;;;;10.50;10.50;;;;;15.77;46.92;100689.22;5087498;27;61739;-80
2022/03/11 04:57:58;;;;;;;;;21.25;18.00;;;;;15.73;47.20;100690.94;5104102;27;61747;-80
2022/03/11 05:00:24;;;;;;;;;15.25;11.25;;;;;15.72;47.19;100691.78;5105928;27;61719;-80
2022/03/11 05:02:50;;;;;;;;;15.00;12.00;;;;;15.68;47.43;100690.81;5104128;27;65145;-80
2022/03/11 05:05:16;;;;;;;;;22.25;13.00;;;;;15.68;47.09;100693.47;5105716;27;62265;-80
2022/03/11 05:07:42;;;;;;;;;14.75;12.00;;;;;15.70;47.13;100697.03;5106235;27;61926;-80
2022/03/11 05:10:11;;;;;;;;;1.25;0.00;;;;;15.68;47.21;100698.75;5106243;27;62112;-80
2022/03/11 05:12:37;;;;;;;;;13.50;12.50;;;;;15.63;47.79;100696.84;5104179;27;63602;-80
2022/03/11 05:15:04;;;;;;;;;12.00;11.00;;;;;15.62;47.56;100692.44;5103742;27;62246;-80
2022/03/11 05:17:31;;;;;;;;;13.50;12.25;;;;;15.62;47.28;100688.03;5104192;27;62012;-80
2022/03/11 05:19:57;;;;;;;;;18.00;15.00;;;;;15.64;47.31;100686.31;5104818;27;61791;-80
2022/03/11 05:22:22;;;;;;;;;11.75;9.50;;;;;15.63;47.56;100679.22;5103854;27;64967;-80
2022/03/11 05:24:48;;;;;;;;;14.00;12.00;;;;;15.62;47.34;100676.56;5104251;27;61804;-80
2022/03/11 05:27:13;;;;;;;;;15.00;11.50;;;;;15.64;47.55;100670.44;5104042;27;61868;-80
2022/03/11 05:29:40;;;;;;;;;11.75;11.75;;;;;15.62;47.58;100668.63;5104901;27;61998;-80
2022/03/11 05:32:06;;;;;;;;;12.25;11.00;;;;;15.59;47.94;100669.41;5105269;27;62187;-80
2022/03/11 05:34:32;;;;;;;;;11.75;9.25;;;;;15.56;47.84;100668.47;5105710;27;61656;-80
2022/03/11 05:36:58;;;;;;;;;15.00;12.25;;;;;15.58;47.65;100657.06;5105327;27;61722;-80
2022/03/11 05:39:23;;;;;;;;;16.50;10.75;;;;;15.59;47.84;100652.66;5104520;27;62177;-80
2022/03/11 05:41:49;;;;;;;;;12.25;10.00;;;;;15.52;47.95;100649.00;5104958;27;61739;-80
2022/03/11 05:44:18;;;;;;;;;10.00;9.00;;;;;15.49;48.12;100644.53;5102969;27;62003;-80
2022/03/11 05:46:44;;;;;;;;;12.75;11.75;;;;;15.49;48.06;100654.22;5121065;27;61975;-80
2022/03/11 05:49:10;;;;;;;;;13.25;10.75;;;;;15.47;48.25;100650.66;5104238;27;61782;-80
2022/03/11 05:51:37;;;;;;;;;13.00;10.50;;;;;15.46;48.04;100648.84;5103377;27;63965;-80
2022/03/11 05:54:03;;;;;;;;;13.50;10.25;;;;;15.38;48.73;100656.63;5104023;27;61759;-80
2022/03/11 05:56:29;;;;;;;;;10.75;9.00;;;;;15.39;48.04;100654.88;5104577;27;61728;-81
2022/03/11 05:58:54;;;;;;;;;12.50;10.50;;;;;15.39;47.90;100657.53;5102991;27;62067;-80
2022/03/11 06:01:20;;;;;;;;;11.25;9.00;;;;;15.36;48.28;100655.72;5103237;27;61938;-80
2022/03/11 06:03:46;;;;;;;;;13.25;11.75;;;;;15.35;48.33;100659.19;5103853;27;61759;-77
2022/03/11 06:06:16;;;;;;;;;14.00;9.25;;;;;15.40;47.97;100659.28;5103662;27;62026;-79
2022/03/11 06:08:42;;;;;;;;;12.00;11.00;;;;;15.37;48.25;100659.22;5104013;27;61969;-77
2022/03/11 06:11:09;;;;;;;;;13.75;11.25;;;;;15.40;48.56;100656.66;5102858;27;63454;-76
2022/03/11 06:13:35;;;;;;;;;12.50;9.75;;;;;15.38;48.29;100653.06;5105402;27;61780;-77
2022/03/11 06:16:01;;;;;;;;;14.75;11.00;;;;;15.39;48.37;100666.34;5104977;27;62030;-78
2022/03/11 06:18:27;;;;;;;;;9.75;9.25;;;;;15.41;48.62;100658.44;5105135;27;62095;-79
2022/03/11 06:20:56;;;;;;;;;11.25;11.25;;;;;15.41;48.57;100658.44;5102518;27;61913;-80
2022/03/11 06:23:25;;;;;;;;;9.50;8.25;;;;;15.45;47.79;100653.25;5102769;27;61853;-80
2022/03/11 06:25:51;;;;;;;;;19.50;11.25;;;;;15.43;48.30;100657.63;5103433;27;62114;-80
2022/03/11 06:28:17;;;;;;;;;10.00;8.75;;;;;15.48;48.25;100650.66;5103863;27;62239;-79
2022/03/11 06:30:45;;;;;;;;;13.75;9.00;;;;;15.51;48.31;100644.53;5103952;27;61866;-81
2022/03/11 06:33:10;;;;;;;;;15.75;9.75;;;;;15.51;48.08;100645.47;5104463;27;62025;-82
2022/03/11 06:35:37;;;;;;;;;12.00;8.75;;;;;15.49;48.26;100643.66;5103010;27;62388;-80
2022/03/11 06:38:03;;;;;;;;;11.50;9.25;;;;;15.54;47.96;100641.97;5102422;27;61977;-79
2022/03/11 06:40:29;;;;;;;;;11.00;8.00;;;;;15.56;47.99;100642.91;5103329;27;63082;-81
2022/03/11 06:42:55;;;;;;;;;8.00;8.00;;;;;15.59;48.04;100642.06;5101956;27;62053;-82
2022/03/11 06:45:21;;;;;;;;;8.50;8.25;;;;;15.59;48.33;100642.06;5104071;27;61947;-79
2022/03/11 06:47:47;;;;;;;;;10.50;8.50;;;;;15.65;47.91;100640.44;5103191;27;62444;-84
2022/03/11 06:50:14;;;;;;;;;11.00;10.25;;;;;15.68;48.05;100640.53;5102860;27;62165;-84
2022/03/11 06:52:40;;;;;;;;;11.25;8.25;;;;;15.75;47.87;100631.00;5081956;28;61913;-84
2022/03/11 06:55:06;;;;;;;;;9.00;7.00;;;;;15.79;47.70;100638.16;5094680;27;61783;-80
2022/03/11 06:57:32;;;;;;;;;10.00;7.75;;;;;15.83;47.66;100640.00;5101995;27;61961;-80
2022/03/11 06:59:58;;;;;;;;;9.25;7.00;;;;;15.89;47.63;100637.44;5083104;27;63760;-80
2022/03/11 07:02:24;;;;;;;;;10.00;9.25;;;;;15.92;47.53;100634.88;5093449;27;61817;-82
2022/03/11 07:04:49;;;;;;;;;11.50;8.00;;;;;15.98;47.42;100635.84;5084275;27;62188;-80
2022/03/11 07:07:14;;;;;;;;;9.75;9.75;;;;;16.00;47.45;100632.38;5085507;27;62021;-78
2022/03/11 07:09:40;;;;;;;;;11.00;7.00;;;;;16.03;47.12;100629.81;5103068;27;61817;-78
2022/03/11 07:12:06;;;;;;;;;14.75;9.50;;;;;16.09;47.24;100632.56;5102670;27;61834;-78
2022/03/11 07:14:35;;;;;;;;;14.25;9.00;;;;;16.13;47.05;100634.41;5083720;27;62037;-78
2022/03/11 07:17:01;;;;;;;;;14.25;8.75;;;;;16.14;46.93;100627.34;5084922;27;61881;-78
2022/03/11 07:19:27;;;;;;;;;7.50;7.50;;;;;16.11;47.07;100630.84;5102916;27;63094;-78
2022/03/11 07:22:01;;;;;;;;;8.75;7.75;;;;;16.19;46.72;100617.72;5103620;27;61888;-78
2022/03/11 07:24:27;;;;;;;;;10.50;5.75;;;;;16.20;46.74;100626.59;5102320;27;62291;-78
2022/03/11 07:26:52;;;;;;;;;12.25;7.75;;;;;16.20;46.99;100622.19;5101750;27;61955;-77
2022/03/11 07:29:18;;;;;;;;;11.25;8.00;;;;;16.18;47.09;100621.25;5101635;27;62252;-77
2022/03/11 07:31:43;;;;;;;;;11.00;9.00;;;;;16.24;46.83;100624.03;5102990;27;61743;-77
2022/03/11 07:34:09;;;;;;;;;10.00;8.00;;;;;16.29;46.86;100616.16;5102842;27;61761;-78
2022/03/11 07:36:35;;;;;;;;;8.00;7.50;;;;;16.38;46.49;100615.44;5103884;27;61695;-76
2022/03/11 07:39:05;;;;;;;;;8.00;5.00;;;;;16.49;46.13;100608.56;5101501;27;63240;-77
2022/03/11 07:41:31;;;;;;;;;8.75;6.00;;;;;16.62;46.30;100607.91;5101446;27;62000;-77
2022/03/11 07:43:57;;;;;;;;;10.00;7.00;;;;;16.73;45.82;100603.69;5100806;27;61981;-77
2022/03/11 07:46:23;;;;;;;;;7.50;7.50;;;;;16.76;45.80;100603.72;5083180;27;61939;-78
2022/03/11 07:48:50;;;;;;;;;8.75;6.75;;;;;16.84;45.95;100602.97;5101121;27;61907;-77
2022/03/11 07:51:16;;;;;;;;;7.50;7.50;;;;;16.88;45.64;100603.06;5101700;27;62142;-78
2022/03/11 07:53:42;;;;;;;;;4.00;0.75;;;;;16.91;45.43;100596.94;5102395;27;62047;-77
2022/03/11 07:56:07;;;;;;;;;8.25;7.25;;;;;16.91;45.51;100597.81;5086698;27;61863;-77
2022/03/11 07:58:33;;;;;;;;;11.25;7.50;;;;;16.95;45.49;100594.34;5104567;27;61832;-78
2022/03/11 08:00:59;;;;;;;;;10.00;6.25;;;;;17.02;45.38;100590.00;5104151;27;61933;-78
2022/03/11 08:03:25;;;;;;;;;5.00;5.00;;;;;17.11;45.24;100586.59;5105836;27;61916;-78
2022/03/11 08:05:50;;;;;;;;;10.25;8.00;;;;;17.17;45.01;100586.69;5105626;27;61780;-78
2022/03/11 08:08:16;;;;;;;;;5.00;5.00;;;;;17.20;44.90;100583.19;5103556;27;61856;-78
2022/03/11 08:10:41;;;;;;;;;5.25;5.25;;;;;17.34;44.77;100578.97;5104381;27;62052;-78
2022/03/11 08:13:07;;;;;;;;;8.25;5.00;;;;;17.54;44.38;100582.75;5105582;27;61877;-78
2022/03/11 08:15:36;;;;;;;;;9.75;7.00;;;;;17.71;43.95;100584.75;5105886;27;62170;-77
2022/03/11 08:18:03;;;;;;;;;5.75;5.75;;;;;17.89;43.73;100578.81;5106129;27;62999;-78
2022/03/11 08:20:29;;;;;;;;;5.25;5.00;;;;;18.01;43.25;100565.63;5106570;27;61885;-77
2022/03/11 08:22:54;;;;;;;;;6.25;6.25;;;;;18.05;43.03;100577.19;5106382;27;61926;-78
2022/03/11 08:25:21;;;;;;;;;9.50;7.25;;;;;18.14;43.22;100572.84;5129896;27;61960;-79
2022/03/11 08:27:48;;;;;;;;;11.00;7.25;;;;;18.31;43.18;100565.03;5103918;27;64704;-79
2022/03/11 08:30:14;;;;;;;;;9.75;5.25;;;;;18.44;42.31;100562.50;5101722;27;63177;-87
2022/03/11 08:32:40;;;;;;;;;6.00;4.75;;;;;18.56;42.32;100552.88;5093716;27;61846;-88
2022/03/11 08:35:07;;;;;;;;;8.50;8.00;;;;;18.67;42.26;100549.41;5096657;27;61876;-88
2022/03/11 08:37:36;;;;;;;;;5.75;5.75;;;;;18.66;41.96;100547.59;5105250;27;62026;-86
2022/03/11 08:40:06;;;;;;;;;8.25;6.00;;;;;18.68;42.04;100548.50;5088800;27;61768;-87
2022/03/11 08:42:36;;;;;;;;;9.75;6.50;;;;;18.63;42.08;100540.50;5085737;27;61809;-87
2022/03/11 08:45:03;;;;;;;;;8.25;6.25;;;;;18.72;42.13;100545.00;5085638;27;61752;-87
2022/03/11 08:47:28;;;;;;;;;4.25;4.25;;;;;18.76;41.81;100546.81;5091960;27;63865;-86
2022/03/11 08:49:54;;;;;;;;;4.00;4.00;;;;;18.82;41.63;100536.25;5104711;27;61873;-88
2022/03/11 08:52:21;;;;;;;;;4.00;4.00;;;;;18.89;41.44;100538.06;5106210;27;61769;-88
2022/03/11 08:54:47;;;;;;;;;4.25;4.25;;;;;19.00;41.43;100539.03;5107103;27;61760;-87
2022/03/11 08:57:12;;;;;;;;;6.00;4.00;;;;;19.09;41.18;100538.19;5103695;27;64502;-88
2022/03/11 08:59:38;;;;;;;;;7.50;3.00;;;;;19.10;41.04;100539.97;5104314;27;61948;-87
2022/03/11 09:02:07;;;;;;;;;6.25;4.00;;;;;19.19;41.13;100534.72;5105206;27;62168;-87
2022/03/11 09:04:36;;;;;;;;;6.25;6.00;;;;;19.31;41.27;100538.31;5105957;27;61799;-84
2022/03/11 09:07:02;;;;;;;;;4.00;4.00;;;;;19.41;40.71;100529.47;5103757;27;63536;-88
2022/03/11 09:09:32;;;;;;;;;8.50;5.00;;;;;19.43;40.33;100530.38;5104999;27;61881;-85
2022/03/11 09:11:58;;;;;;;;;4.50;4.00;;;;;19.41;40.59;100525.03;5105623;27;61704;-88
2022/03/11 09:14:23;;;;;;;;;3.00;3.00;;;;;19.48;40.27;100509.09;5104670;27;61992;-89
2022/03/11 09:16:49;;;;;;;;;5.00;4.00;;;;;19.44;40.35;100512.63;5104076;27;64988;-87
2022/03/11 09:19:14;;;;;;;;;3.00;3.00;;;;;19.52;40.36;100522.41;5104846;27;62027;-88
2022/03/11 09:21:41;;;;;;;;;3.25;3.25;;;;;19.56;39.96;100512.69;5103880;27;61739;-86
2022/03/11 09:24:07;;;;;;;;;4.50;3.25;;;;;19.56;40.25;100518.00;5121434;27;61769;-86
2022/03/11 09:26:32;;;;;;;;;2.25;2.25;;;;;19.55;40.04;100508.22;5104232;27;63408;-88
2022/03/11 09:28:58;;;;;;;;;3.00;3.00;;;;;19.58;40.02;100511.78;5105047;27;62109;-80
2022/03/11 09:31:23;;;;;;;;;3.50;3.00;;;;;19.62;40.01;100510.00;5091528;27;62041;-80
2022/03/11 09:33:49;;;;;;;;;6.50;4.50;;;;;19.69;39.79;100509.16;5085299;27;62371;-82
2022/03/11 09:36:15;;;;;;;;;3.25;2.25;;;;;19.63;39.47;100514.47;5117180;27;63684;-83
2022/03/11 09:38:40;;;;;;;;;6.50;4.75;;;;;19.71;39.49;100514.50;5103398;27;61948;-86
2022/03/11 09:41:07;;;;;;;;;3.00;3.00;;;;;19.76;39.69;100510.97;5105633;27;61857;-87
2022/03/11 09:43:36;;;;;;;;;3.75;1.75;;;;;19.82;39.80;100512.78;5120828;27;62103;-86
2022/03/11 09:46:02;;;;;;;;;4.00;1.25;;;;;19.76;39.40;100495.00;5104540;27;62930;-86
2022/03/11 09:48:28;;;;;;;;;3.25;2.75;;;;;19.69;39.10;100490.53;5103592;27;62153;-86
2022/03/11 09:50:54;;;;;;;;;3.00;3.00;;;;;19.69;39.60;100493.19;5103558;27;61876;-86
2022/03/11 09:53:20;;;;;;;;;2.50;2.00;;;;;19.77;39.31;100496.78;5105444;27;62074;-86
2022/03/11 09:55:45;;;;;;;;;2.00;2.00;;;;;19.88;39.64;100482.56;5104174;27;61778;-85
2022/03/11 09:58:11;;;;;;;;;2.25;2.25;;;;;19.87;39.60;100483.47;5102871;27;61916;-85
2022/03/11 10:00:37;;;;;;;;;2.50;2.50;;;;;19.82;39.61;100480.81;5104901;27;61789;-86
2022/03/11 10:03:03;;;;;;;;;3.50;3.00;;;;;19.67;40.24;100486.09;5104303;27;62221;-87
2022/03/11 10:05:49;;;;;;;;;3.00;3.00;;;;;19.53;41.23;100473.59;5102074;27;61926;-84
2022/03/11 10:08:15;;;;;;;;;7.75;3.00;;;;;19.42;42.77;100462.03;5104546;27;61786;-87
2022/03/11 10:10:42;;;;;;;;;3.00;3.00;;;;;19.30;42.24;100465.56;5105186;27;61735;-86
2022/03/11 10:13:09;;;;;;;;;3.75;3.00;;;;;19.27;43.56;100452.22;5105271;27;62025;-86
2022/03/11 10:15:36;;;;;;;;;2.50;2.50;;;;;19.32;43.40;100458.47;5119204;27;65080;-86
2022/03/11 10:18:04;;;;;;;;;3.00;3.00;;;;;19.38;43.49;100471.78;5103846;27;61859;-87
2022/03/11 10:20:31;;;;;;;;;2.00;2.00;;;;;19.38;42.69;100484.19;5099443;27;61774;-86
2022/03/11 10:22:57;;;;;;;;;3.00;3.00;;;;;19.37;43.14;100480.66;5084514;27;61685;-86
2022/03/11 10:25:27;;;;;;;;;3.00;3.00;;;;;19.42;42.39;100473.56;5083500;27;61945;-86
2022/03/11 10:28:03;;;;;;;;;3.75;2.00;;;;;19.56;42.63;100483.41;5116048;27;62200;-85
2022/03/11 10:30:31;;;;;;;;;6.50;3.25;;;;;19.82;42.08;100467.50;5116611;27;61929;-86
2022/03/11 10:32:59;;;;;;;;;3.50;3.50;;;;;19.97;41.89;100464.84;5083989;28;61736;-85
2022/03/11 10:35:31;;;;;;;;;4.25;3.00;;;;;20.02;41.40;100455.06;5083364;28;63144;-86
2022/03/11 10:38:07;;;;;;;;;5.00;3.25;;;;;19.99;40.87;100460.41;5100511;27;62184;-85
2022/03/11 10:40:36;;;;;;;;;3.00;3.00;;;;;19.83;41.16;100477.25;5084137;27;61816;-85
2022/03/11 10:43:17;;;;;;;;;5.00;4.00;;;;;19.67;41.42;100486.97;5082927;28;62113;-87
2022/03/11 10:45:53;;;;;;;;;3.00;3.00;;;;;19.59;41.70;100481.59;5081836;28;63671;-87
2022/03/11 10:48:40;;;;;;;;;8.50;3.00;;;;;19.54;42.39;100478.06;5116186;27;62021;-85
2022/03/11 10:51:10;;;;;;;;;1.75;1.75;;;;;19.51;42.63;100485.13;5100725;27;62244;-83
2022/03/11 10:53:40;;;;;;;;;2.75;2.75;;;;;19.42;43.89;100488.66;5119260;27;61880;-82
2022/03/11 10:56:07;;;;;;;;;2.00;2.00;;;;;19.25;45.21;100485.03;5101809;27;62024;-82
2022/03/11 10:58:36;;;;;;;;;2.00;2.00;;;;;19.29;46.95;100511.69;5102328;27;62161;-84
2022/03/11 11:01:02;;;;;;;;;3.00;3.00;;;;;19.29;46.20;100521.44;5087567;27;62029;-83
2022/03/11 11:03:27;;;;;;;;;3.00;2.00;;;;;19.20;46.17;100504.53;5064599;28;61918;-80
2022/03/11 11:05:55;;;;;;;;;3.50;3.00;;;;;19.19;46.96;100499.19;5064444;28;62971;-79
2022/03/11 11:08:21;;;;;;;;;3.00;3.00;;;;;19.17;47.17;100499.22;5065402;28;62376;-87
2022/03/11 11:10:47;;;;;;;;;6.75;3.50;;;;;19.15;47.72;100506.31;5065203;28;62174;-81